createdAt,value
2022-11-15T00:01:49.628Z,2.65
2022-11-15T00:04:19.050Z,1.92
2022-11-15T00:06:47.702Z,3.17
2022-11-15T00:09:18.150Z,2.42
2022-11-15T00:11:47.191Z,1.83
2022-11-15T00:14:17.181Z,2.15
2022-11-15T00:16:46.170Z,3.22
2022-11-15T00:19:14.893Z,1.90
2022-11-15T00:21:43.654Z,3.28
2022-11-15T00:24:12.421Z,2.92
2022-11-15T00:26:40.920Z,1.90
2022-11-15T00:29:09.730Z,3.65
2022-11-15T00:31:40.171Z,1.55
2022-11-15T00:34:08.712Z,5.03
2022-11-15T00:36:37.151Z,4.25
2022-11-15T00:39:07.070Z,3.35
2022-11-15T00:41:35.530Z,2.67
2022-11-15T00:44:04.305Z,2.42
2022-11-15T00:46:32.794Z,2.95
2022-11-15T00:49:02.830Z,1.85
2022-11-15T00:51:31.260Z,2.55
2022-11-15T00:53:59.731Z,3.45
2022-11-15T00:56:28.350Z,1.85
2022-11-15T00:58:56.801Z,2.28
2022-11-15T01:01:25.350Z,2.35
2022-11-15T01:03:57.348Z,2.50
2022-11-15T01:06:29.911Z,2.40
2022-11-15T01:08:58.371Z,2.95
2022-11-15T01:11:26.761Z,3.03
2022-11-15T01:13:55.170Z,1.52
2022-11-15T01:16:23.612Z,2.60
2022-11-15T01:18:52.931Z,2.50
2022-11-15T01:21:21.871Z,2.75
2022-11-15T01:23:55.391Z,3.40
2022-11-15T01:26:24.690Z,1.63
2022-11-15T01:28:53.490Z,3.15
2022-11-15T01:31:22.880Z,2.45
2022-11-15T01:33:51.360Z,2.70
2022-11-15T01:36:22.834Z,3.50
2022-11-15T01:38:57.850Z,2.40
2022-11-15T01:41:27.833Z,4.13
2022-11-15T01:43:58.952Z,3.22
2022-11-15T01:46:32.456Z,1.83
2022-11-15T01:49:04.811Z,4.55
2022-11-15T01:51:35.574Z,4.03
2022-11-15T01:54:10.235Z,4.47
2022-11-15T01:56:43.660Z,2.45
2022-11-15T01:59:13.250Z,3.22
2022-11-15T02:01:43.931Z,2.05
2022-11-15T02:04:15.950Z,2.50
2022-11-15T02:06:45.839Z,4.05
2022-11-15T02:09:16.160Z,2.03
2022-11-15T02:11:46.291Z,3.22
2022-11-15T02:14:17.041Z,5.40
2022-11-15T02:16:55.701Z,4.03
2022-11-15T02:19:43.026Z,3.08
2022-11-15T02:22:29.685Z,3.13
2022-11-15T02:25:13.091Z,2.83
2022-11-15T02:28:24.620Z,1.15
2022-11-15T02:30:59.321Z,1.90
2022-11-15T02:33:36.981Z,1.15
2022-11-15T02:36:12.751Z,3.35
2022-11-15T02:38:49.609Z,2.42
2022-11-15T02:41:22.621Z,5.93
2022-11-15T02:43:57.911Z,3.55
2022-11-15T02:46:53.026Z,2.20
2022-11-15T02:49:22.103Z,2.88
2022-11-15T02:51:53.240Z,3.35
2022-11-15T02:54:25.480Z,3.50
2022-11-15T02:56:56.741Z,4.72
2022-11-15T02:59:50.832Z,2.83
2022-11-15T03:02:34.500Z,2.72
2022-11-15T03:05:11.859Z,2.13
2022-11-15T03:07:48.660Z,2.13
2022-11-15T03:10:23.689Z,3.97
2022-11-15T03:12:59.061Z,3.78
2022-11-15T03:15:32.719Z,2.47
2022-11-15T03:18:06.660Z,2.05
2022-11-15T03:20:37.449Z,2.97
2022-11-15T03:23:09.460Z,2.83
2022-11-15T03:25:43.329Z,3.13
2022-11-15T03:28:14.780Z,4.07
2022-11-15T03:30:45.103Z,2.17
2022-11-15T03:33:15.223Z,3.72
2022-11-15T03:35:47.149Z,4.07
2022-11-15T03:38:22.195Z,2.65
2022-11-15T03:40:57.270Z,2.42
2022-11-15T03:43:35.334Z,3.67
2022-11-15T03:46:08.099Z,4.85
2022-11-15T03:48:43.039Z,2.00
2022-11-15T03:51:12.059Z,1.80
2022-11-15T03:53:40.600Z,3.03
2022-11-15T03:56:09.510Z,2.45
2022-11-15T03:58:38.010Z,2.35
2022-11-15T04:01:06.811Z,2.85
2022-11-15T04:03:35.409Z,2.58
2022-11-15T04:06:05.452Z,2.40
2022-11-15T04:08:33.820Z,3.88
2022-11-15T04:11:02.492Z,3.88
2022-11-15T04:13:31.214Z,3.08
2022-11-15T04:15:59.820Z,2.67
2022-11-15T04:18:28.460Z,5.43
2022-11-15T04:21:13.970Z,3.03
2022-11-15T04:24:01.210Z,2.80
2022-11-15T04:26:29.741Z,2.60
2022-11-15T04:29:29.932Z,3.80
2022-11-15T04:31:58.361Z,4.07
2022-11-15T04:34:26.741Z,2.05
2022-11-15T04:37:12.250Z,3.20
2022-11-15T04:39:42.633Z,3.60
2022-11-15T04:42:11.890Z,4.22
2022-11-15T04:44:40.611Z,3.20
2022-11-15T04:47:08.990Z,2.92
2022-11-15T04:49:37.400Z,3.38
2022-11-15T04:52:06.189Z,2.78
2022-11-15T04:54:34.600Z,1.77
2022-11-15T04:57:04.389Z,2.75
2022-11-15T04:59:32.860Z,4.00
2022-11-15T05:02:01.240Z,4.07
2022-11-15T05:04:28.559Z,3.10
2022-11-15T05:06:57.029Z,3.10
2022-11-15T05:09:25.429Z,2.83
2022-11-15T05:11:53.809Z,3.05
2022-11-15T05:14:23.720Z,1.95
2022-11-15T05:16:52.090Z,2.90
2022-11-15T05:19:20.573Z,2.63
2022-11-15T05:21:49.918Z,3.75
2022-11-15T05:24:18.387Z,1.90
2022-11-15T05:26:46.780Z,4.43
2022-11-15T05:29:15.359Z,2.42
2022-11-15T05:31:45.179Z,2.95
2022-11-15T05:34:13.579Z,2.72
2022-11-15T05:36:45.899Z,2.00
2022-11-15T05:39:14.283Z,4.13
2022-11-15T05:41:46.269Z,2.90
2022-11-15T05:44:18.611Z,2.75
2022-11-15T05:46:50.619Z,3.03
2022-11-15T05:49:22.629Z,3.35
2022-11-15T05:51:52.370Z,2.70
2022-11-15T05:54:24.479Z,4.20
2022-11-15T05:56:53.379Z,3.20
2022-11-15T05:59:22.620Z,2.70
2022-11-15T06:01:52.705Z,3.58
2022-11-15T06:04:21.259Z,2.03
2022-11-15T06:06:49.708Z,3.17
2022-11-15T06:09:18.082Z,2.35
2022-11-15T06:11:46.521Z,2.00
2022-11-15T06:14:14.913Z,2.13
2022-11-15T06:16:43.300Z,3.60
2022-11-15T06:19:13.140Z,5.03
2022-11-15T06:21:41.525Z,6.15
2022-11-15T06:24:10.112Z,3.30
2022-11-15T06:26:38.589Z,5.75
2022-11-15T06:29:07.001Z,2.67
2022-11-15T06:31:36.563Z,2.30
2022-11-15T06:34:05.086Z,4.57
2022-11-15T06:36:37.011Z,4.20
2022-11-15T06:39:05.621Z,2.38
2022-11-15T06:41:36.450Z,2.47
2022-11-15T06:44:05.005Z,3.28
2022-11-15T06:46:33.503Z,3.03
2022-11-15T06:49:05.294Z,3.90
2022-11-15T06:51:39.213Z,3.42
2022-11-15T06:54:07.880Z,3.55
2022-11-15T06:56:37.141Z,2.35
2022-11-15T06:59:05.646Z,3.50
2022-11-15T07:01:34.224Z,2.83
2022-11-15T07:04:07.781Z,2.33
2022-11-15T07:06:36.630Z,3.10
2022-11-15T07:09:07.211Z,3.25
2022-11-15T07:11:36.511Z,3.38
2022-11-15T07:14:05.665Z,4.15
2022-11-15T07:16:34.876Z,3.13
2022-11-15T07:19:03.845Z,3.42
2022-11-15T07:21:33.257Z,2.97
2022-11-15T07:24:01.679Z,1.92
2022-11-15T07:26:31.538Z,3.67
2022-11-15T07:29:00.093Z,3.05
2022-11-15T07:31:28.615Z,3.05
2022-11-15T07:33:57.185Z,2.83
2022-11-15T07:36:25.666Z,4.85
2022-11-15T07:38:54.016Z,6.03
2022-11-15T07:41:22.576Z,6.65
2022-11-15T07:43:55.095Z,5.93
2022-11-15T07:46:23.555Z,4.90
2022-11-15T07:48:51.916Z,6.60
2022-11-15T07:51:20.415Z,7.72
2022-11-15T07:53:48.826Z,9.32
2022-11-15T07:56:18.328Z,15.38
2022-11-15T07:58:55.406Z,16.48
2022-11-15T08:01:25.324Z,13.10
2022-11-15T08:03:54.016Z,19.33
2022-11-15T08:06:22.425Z,16.05
2022-11-15T08:08:50.815Z,20.70
2022-11-15T08:11:19.235Z,18.83
2022-11-15T08:13:47.656Z,26.75
2022-11-15T08:16:16.036Z,29.67
2022-11-15T08:18:45.877Z,25.27
2022-11-15T08:21:18.383Z,30.80
2022-11-15T08:23:47.036Z,33.50
2022-11-15T08:26:15.786Z,28.77
2022-11-15T08:28:44.171Z,27.95
2022-11-15T08:31:16.746Z,30.85
2022-11-15T08:33:47.278Z,31.40
2022-11-15T08:36:17.398Z,27.00
2022-11-15T08:38:46.081Z,30.13
2022-11-15T08:41:18.647Z,34.40
2022-11-15T08:43:47.030Z,28.90
2022-11-15T08:46:16.147Z,27.92
2022-11-15T08:48:46.047Z,28.00
2022-11-15T08:51:14.476Z,30.63
2022-11-15T08:53:43.277Z,24.90
2022-11-15T08:56:13.126Z,29.98
2022-11-15T08:58:42.008Z,22.30
2022-11-15T09:01:18.724Z,24.45
2022-11-15T09:03:48.947Z,27.70
2022-11-15T09:06:17.617Z,20.08
2022-11-15T09:08:47.890Z,32.08
2022-11-15T09:11:22.556Z,22.42
2022-11-15T09:13:50.968Z,28.23
2022-11-15T09:16:19.371Z,25.98
2022-11-15T09:18:49.791Z,23.98
2022-11-15T09:21:18.247Z,22.45
2022-11-15T09:23:46.877Z,22.00
2022-11-15T09:26:15.678Z,22.23
2022-11-15T09:28:44.197Z,18.85
2022-11-15T09:31:12.646Z,20.40
2022-11-15T09:33:41.216Z,20.33
2022-11-15T09:36:13.229Z,20.25
2022-11-15T09:38:42.286Z,17.60
2022-11-15T09:41:38.407Z,15.75
2022-11-15T09:44:32.537Z,16.08
2022-11-15T09:47:12.288Z,13.93
2022-11-15T09:49:41.598Z,18.48
2022-11-15T09:52:13.936Z,15.32
2022-11-15T09:54:56.411Z,18.08
2022-11-15T09:57:33.766Z,16.75
2022-11-15T10:03:15.396Z,12.55
2022-11-15T10:05:46.129Z,14.55
2022-11-15T10:08:28.126Z,14.70
2022-11-15T10:11:30.493Z,15.82
2022-11-15T10:13:51.498Z,15.63
2022-11-15T10:16:52.747Z,12.63
2022-11-15T10:19:28.397Z,13.02
2022-11-15T10:22:06.928Z,14.23
2022-11-15T10:24:42.445Z,10.45
2022-11-15T10:27:13.887Z,12.30
2022-11-15T10:29:48.629Z,13.52
2022-11-15T10:32:20.274Z,15.07
2022-11-15T10:34:49.696Z,16.13
2022-11-15T10:37:30.780Z,11.77
2022-11-15T10:40:09.376Z,12.85
2022-11-15T10:42:37.826Z,11.10
2022-11-15T10:45:26.586Z,12.65
2022-11-15T10:47:55.067Z,10.82
2022-11-15T10:50:34.515Z,11.43
2022-11-15T10:53:05.110Z,12.43
2022-11-15T10:55:36.297Z,12.32
2022-11-15T10:58:08.095Z,13.30
2022-11-15T11:00:40.350Z,12.73
2022-11-15T11:03:27.801Z,10.63
2022-11-15T11:06:07.866Z,11.25
2022-11-15T11:08:37.589Z,8.88
2022-11-15T11:11:08.685Z,16.08
2022-11-15T11:13:38.936Z,16.70
2022-11-15T11:16:38.894Z,9.07
2022-11-15T11:19:20.945Z,11.77
2022-11-15T11:22:00.047Z,16.52
2022-11-15T11:24:36.787Z,11.35
2022-11-15T11:27:28.437Z,12.40
2022-11-15T11:30:06.168Z,10.63
2022-11-15T11:32:56.936Z,9.98
2022-11-15T11:35:31.885Z,9.65
2022-11-15T11:38:16.318Z,11.60
2022-11-15T11:40:52.845Z,11.50
2022-11-15T11:43:29.664Z,14.43
2022-11-15T11:46:12.149Z,8.63
2022-11-15T11:48:44.397Z,9.95
2022-11-15T11:51:19.205Z,10.80
2022-11-15T11:53:55.459Z,11.43
2022-11-15T11:56:29.295Z,11.77
2022-11-15T11:59:08.526Z,9.23
2022-11-15T12:01:42.128Z,10.20
2022-11-15T12:04:16.982Z,10.27
2022-11-15T12:06:52.645Z,9.00
2022-11-15T12:13:11.215Z,11.13
2022-11-15T12:22:44.377Z,8.63
2022-11-15T12:25:21.096Z,10.52
2022-11-15T12:27:53.219Z,8.43
2022-11-15T12:30:25.987Z,7.85
2022-11-15T12:33:10.785Z,7.63
2022-11-15T12:35:46.856Z,8.32
2022-11-15T12:38:57.425Z,9.65
2022-11-15T12:41:27.285Z,11.32
2022-11-15T12:43:56.146Z,10.35
2022-11-15T12:46:50.549Z,7.28
2022-11-15T12:49:47.615Z,6.93
2022-11-15T12:52:19.007Z,8.38
2022-11-15T12:55:28.908Z,9.15
2022-11-15T12:58:32.704Z,10.70
2022-11-15T13:01:16.311Z,7.00
2022-11-15T13:04:16.305Z,9.13
2022-11-15T13:06:46.965Z,8.40
2022-11-15T13:09:53.854Z,8.40
2022-11-15T13:13:02.345Z,8.73
2022-11-15T13:15:58.785Z,8.82
2022-11-15T13:18:40.999Z,8.20
2022-11-15T13:21:44.635Z,7.28
2022-11-15T13:24:20.486Z,11.32
2022-11-15T13:29:26.946Z,6.50
2022-11-15T13:31:56.837Z,5.78
2022-11-15T13:34:52.140Z,10.35
2022-11-15T13:37:33.685Z,8.38
2022-11-15T13:40:21.358Z,7.93
2022-11-15T13:42:49.796Z,7.45
2022-11-15T13:45:21.737Z,7.70
2022-11-15T13:48:01.777Z,8.38
2022-11-15T13:50:50.416Z,7.82
2022-11-15T13:53:19.956Z,7.47
2022-11-15T13:55:49.876Z,6.03
2022-11-15T13:58:31.118Z,7.40
2022-11-15T14:01:06.410Z,8.73
2022-11-15T14:03:38.737Z,8.88
2022-11-15T14:06:13.470Z,10.30
2022-11-15T14:08:44.190Z,8.40
2022-11-15T14:11:18.717Z,7.57
2022-11-15T14:14:07.109Z,15.05
2022-11-15T14:16:39.015Z,10.23
2022-11-15T14:19:09.165Z,8.50
2022-11-15T14:21:38.728Z,7.95
2022-11-15T14:24:21.677Z,10.63
2022-11-15T14:26:52.235Z,8.35
2022-11-15T14:29:28.390Z,13.30
2022-11-15T14:32:18.306Z,22.13
2022-11-15T14:34:47.106Z,24.88
2022-11-15T14:37:25.365Z,18.63
2022-11-15T14:39:54.695Z,18.90
2022-11-15T14:42:25.845Z,10.63
2022-11-15T14:44:55.267Z,21.70
2022-11-15T14:47:26.158Z,13.73
2022-11-15T14:49:55.219Z,12.40
2022-11-15T14:52:32.686Z,14.07
2022-11-15T14:55:02.600Z,15.75
2022-11-15T14:57:32.545Z,12.98
2022-11-15T15:00:01.478Z,14.75
2022-11-15T15:02:32.237Z,11.95
2022-11-15T15:05:03.946Z,9.80
2022-11-15T15:07:33.032Z,10.88
2022-11-15T15:10:37.892Z,15.35
2022-11-15T15:12:51.157Z,11.45
2022-11-15T15:15:24.577Z,12.05
2022-11-15T15:17:55.136Z,11.82
2022-11-15T15:20:24.126Z,11.38
2022-11-15T15:22:52.995Z,10.13
2022-11-15T15:25:28.508Z,10.18
2022-11-15T15:27:57.697Z,10.48
2022-11-15T15:30:30.526Z,10.65
2022-11-15T15:33:00.856Z,15.30
2022-11-15T15:35:33.045Z,15.68
2022-11-15T15:38:02.317Z,16.98
2022-11-15T15:40:32.806Z,9.80
2022-11-15T15:43:01.559Z,10.75
2022-11-15T15:45:30.883Z,16.33
2022-11-15T15:48:01.166Z,10.98
2022-11-15T15:50:31.867Z,13.27
2022-11-15T15:53:02.416Z,17.55
2022-11-15T15:55:31.468Z,15.65
2022-11-15T15:58:00.315Z,20.20
2022-11-15T16:00:29.458Z,18.30
2022-11-15T16:02:59.806Z,21.08
2022-11-15T16:05:29.817Z,18.77
2022-11-15T16:07:58.176Z,20.35
2022-11-15T16:10:46.395Z,19.77
2022-11-15T16:13:32.284Z,16.35
2022-11-15T16:16:17.287Z,18.27
2022-11-15T16:18:46.346Z,24.90
2022-11-15T16:21:16.375Z,21.48
2022-11-15T16:23:46.667Z,18.30
2022-11-15T16:26:23.816Z,25.45
2022-11-15T16:28:52.426Z,19.40
2022-11-15T16:31:23.582Z,18.98
2022-11-15T16:33:52.166Z,22.70
2022-11-15T16:36:30.818Z,18.52
2022-11-15T16:39:00.085Z,16.25
2022-11-15T16:41:28.616Z,16.63
2022-11-15T16:43:57.061Z,19.30
2022-11-15T16:46:27.019Z,19.42
2022-11-15T16:48:55.895Z,16.55
2022-11-15T16:51:25.955Z,17.67
2022-11-15T16:53:54.455Z,20.33
2022-11-15T16:56:27.573Z,25.40
2022-11-15T16:58:58.786Z,20.10
2022-11-15T17:01:29.891Z,18.90
2022-11-15T17:03:58.997Z,17.17
2022-11-15T17:06:28.816Z,17.42
2022-11-15T17:08:57.526Z,17.23
2022-11-15T17:11:26.537Z,17.60
2022-11-15T17:13:59.786Z,15.07
2022-11-15T17:16:28.236Z,16.48
2022-11-15T17:19:30.674Z,16.20
2022-11-15T17:22:01.262Z,14.50
2022-11-15T17:24:29.707Z,14.13
2022-11-15T17:26:58.583Z,15.20
2022-11-15T17:29:27.146Z,13.32
2022-11-15T17:31:55.476Z,13.95
2022-11-15T17:34:24.847Z,14.55
2022-11-15T17:36:54.627Z,18.27
2022-11-15T17:39:25.332Z,14.88
2022-11-15T17:41:59.241Z,16.55
2022-11-15T17:44:43.646Z,14.35
2022-11-15T17:47:19.276Z,20.90
2022-11-15T17:50:02.887Z,25.80
2022-11-15T17:52:43.947Z,27.17
2022-11-15T17:55:26.466Z,17.42
2022-11-15T17:57:58.961Z,18.75
2022-11-15T18:00:38.087Z,18.33
2022-11-15T18:03:31.485Z,20.58
2022-11-15T18:06:24.081Z,14.05
2022-11-15T18:09:03.867Z,16.23
2022-11-15T18:11:53.763Z,15.32
2022-11-15T18:14:27.192Z,18.23
2022-11-15T18:17:02.197Z,15.82
2022-11-15T18:19:39.191Z,12.23
2022-11-15T18:22:19.970Z,14.48
2022-11-15T18:24:59.699Z,9.75
2022-11-15T18:27:46.673Z,17.42
2022-11-15T18:30:22.353Z,13.52
2022-11-15T18:33:05.373Z,15.45
2022-11-15T18:35:43.871Z,16.90
2022-11-15T18:38:17.322Z,11.48
2022-11-15T18:40:53.691Z,10.52
2022-11-15T18:43:33.376Z,13.63
2022-11-15T18:46:14.762Z,9.85
2022-11-15T18:49:01.776Z,10.10
2022-11-15T18:51:53.532Z,10.50
2022-11-15T18:54:36.572Z,12.30
2022-11-15T18:57:17.326Z,9.95
2022-11-15T18:59:59.214Z,10.95
2022-11-15T19:02:33.502Z,11.20
2022-11-15T19:05:05.791Z,11.10
2022-11-15T19:07:45.860Z,11.48
2022-11-15T19:10:19.771Z,10.18
2022-11-15T19:13:05.780Z,8.90
2022-11-15T19:15:43.211Z,11.40
2022-11-15T19:18:34.541Z,9.55
2022-11-15T19:21:05.292Z,9.63
2022-11-15T19:23:35.457Z,9.25
2022-11-15T19:26:06.061Z,12.55
2022-11-15T19:28:35.402Z,11.25
2022-11-15T19:31:28.951Z,10.73
2022-11-15T19:36:33.411Z,10.13
2022-11-15T19:39:05.843Z,8.38
2022-11-15T19:41:34.662Z,10.25
2022-11-15T19:44:03.394Z,9.88
2022-11-15T19:46:41.691Z,10.75
2022-11-15T19:49:11.519Z,12.32
2022-11-15T19:51:42.799Z,10.85
2022-11-15T19:54:11.930Z,11.77
2022-11-15T19:56:41.102Z,10.43
2022-11-15T19:59:12.623Z,9.90
2022-11-15T20:01:42.851Z,9.30
2022-11-15T20:04:11.251Z,11.82
2022-11-15T20:06:42.362Z,12.40
2022-11-15T20:09:14.346Z,44.58
2022-11-15T20:11:43.310Z,185.50
2022-11-15T20:14:13.280Z,96.10
2022-11-15T20:16:44.881Z,111.38
2022-11-15T20:19:16.057Z,105.30
2022-11-15T20:21:44.871Z,93.47
2022-11-15T20:24:13.304Z,89.57
2022-11-15T20:26:43.878Z,88.15
2022-11-15T20:29:12.586Z,78.68
2022-11-15T20:31:42.511Z,74.43
2022-11-15T20:34:11.331Z,66.82
2022-11-15T20:36:40.756Z,63.35
2022-11-15T20:39:09.140Z,60.75
2022-11-15T20:41:37.543Z,55.25
2022-11-15T20:44:08.446Z,51.17
2022-11-15T20:46:36.891Z,50.50
2022-11-15T20:49:07.350Z,48.42
2022-11-15T20:51:36.641Z,40.60
2022-11-15T20:54:06.350Z,38.17
2022-11-15T20:56:46.744Z,37.42
2022-11-15T20:59:15.213Z,33.70
2022-11-15T21:01:43.838Z,34.63
2022-11-15T21:04:14.020Z,32.42
2022-11-15T21:06:47.580Z,32.17
2022-11-15T21:09:37.731Z,31.53
2022-11-15T21:12:12.949Z,30.05
2022-11-15T21:14:42.481Z,27.35
2022-11-15T21:17:11.571Z,28.65
2022-11-15T21:19:43.050Z,25.98
2022-11-15T21:22:14.141Z,27.33
2022-11-15T21:24:42.852Z,28.92
2022-11-15T21:27:11.632Z,26.13
2022-11-15T21:29:40.314Z,22.92
2022-11-15T21:32:11.032Z,25.58
2022-11-15T21:34:40.590Z,22.35
2022-11-15T21:37:12.170Z,22.23
2022-11-15T21:39:41.343Z,24.00
2022-11-15T21:42:10.126Z,22.58
2022-11-15T21:44:38.636Z,21.55
2022-11-15T21:47:07.425Z,20.13
2022-11-15T21:49:36.020Z,19.55
2022-11-15T21:52:04.416Z,19.42
2022-11-15T21:54:34.392Z,19.45
2022-11-15T21:57:03.504Z,18.27
2022-11-15T21:59:31.911Z,18.00
2022-11-15T22:02:17.121Z,18.65
2022-11-15T22:04:48.937Z,16.10
2022-11-15T22:07:21.376Z,18.58
2022-11-15T22:09:51.477Z,16.65
2022-11-15T22:12:20.001Z,15.43
2022-11-15T22:14:51.121Z,15.75
2022-11-15T22:17:19.581Z,13.63
2022-11-15T22:19:52.805Z,14.10
2022-11-15T22:22:21.621Z,15.32
2022-11-15T22:24:51.601Z,17.25
2022-11-15T22:27:19.992Z,11.80
2022-11-15T22:29:48.472Z,12.63
2022-11-15T22:32:16.955Z,14.65
2022-11-15T22:34:45.323Z,14.80
2022-11-15T22:37:20.592Z,13.55
2022-11-15T22:39:51.312Z,13.93
2022-11-15T22:42:23.718Z,12.85
2022-11-15T22:44:52.532Z,15.38
2022-11-15T22:47:21.283Z,13.65
2022-11-15T22:49:49.701Z,12.60
2022-11-15T22:52:18.361Z,10.77
2022-11-15T22:54:46.843Z,12.88
2022-11-15T22:57:16.661Z,11.55
2022-11-15T22:59:45.412Z,11.90
2022-11-15T23:02:14.224Z,11.75
2022-11-15T23:04:42.822Z,10.32
2022-11-15T23:07:11.891Z,11.43
2022-11-15T23:09:41.274Z,12.57
2022-11-15T23:12:29.575Z,11.32
2022-11-15T23:15:00.143Z,10.60
2022-11-15T23:17:29.623Z,11.25
2022-11-15T23:20:01.013Z,11.00
2022-11-15T23:22:47.518Z,11.32
2022-11-15T23:25:16.192Z,11.63
2022-11-15T23:27:44.763Z,9.63
2022-11-15T23:30:32.873Z,9.77
2022-11-15T23:33:18.923Z,9.45
2022-11-15T23:35:55.711Z,9.27
2022-11-15T23:38:24.361Z,8.50
2022-11-15T23:40:53.292Z,8.55
2022-11-15T23:43:22.423Z,9.48
2022-11-15T23:45:52.351Z,9.13
2022-11-15T23:48:20.831Z,8.10
2022-11-15T23:50:49.791Z,8.43
2022-11-15T23:53:18.323Z,9.38
2022-11-15T23:55:56.012Z,9.40
2022-11-15T23:58:24.521Z,7.88
